createdAt,value
2018-04-09T00:01:38.808Z,95530.17
2018-04-09T00:04:04.666Z,95529.28
2018-04-09T00:06:30.575Z,95525.36
2018-04-09T00:08:56.447Z,95527.42
2018-04-09T00:11:22.355Z,95528.17
2018-04-09T00:13:49.264Z,95525.84
2018-04-09T00:16:15.168Z,95523.20
2018-04-09T00:18:43.854Z,95519.92
2018-04-09T00:21:09.735Z,95518.19
2018-04-09T00:23:38.616Z,95515.16
2018-04-09T00:26:04.559Z,95513.17
2018-04-09T00:28:33.470Z,95519.44
2018-04-09T00:30:59.357Z,95514.83
2018-04-09T00:33:28.111Z,95520.31
2018-04-09T00:35:53.991Z,95510.76
2018-04-09T00:38:22.955Z,95504.56
2018-04-09T00:40:48.871Z,95505.83
2018-04-09T00:43:14.769Z,95499.84
2018-04-09T00:45:40.676Z,95498.45
2018-04-09T00:48:06.559Z,95500.94
2018-04-09T00:50:35.793Z,95497.90
2018-04-09T00:53:01.648Z,95485.25
2018-04-09T00:55:29.321Z,95484.49
2018-04-09T00:57:55.246Z,95484.56
2018-04-09T01:00:24.687Z,95489.79
2018-04-09T01:02:50.568Z,95484.02
2018-04-09T01:05:19.981Z,95478.96
2018-04-09T01:07:45.825Z,95474.82
2018-04-09T01:10:14.855Z,95472.97
2018-04-09T01:12:40.741Z,95477.22
2018-04-09T01:15:08.074Z,95472.27
2018-04-09T01:17:34.008Z,95471.59
2018-04-09T01:19:59.957Z,95471.88
2018-04-09T01:22:25.824Z,95481.86
2018-04-09T01:24:51.707Z,95479.34
2018-04-09T01:27:20.159Z,95479.84
2018-04-09T01:29:46.033Z,95477.52
2018-04-09T01:32:15.484Z,95471.88
2018-04-09T01:34:41.347Z,95478.06
2018-04-09T01:37:09.541Z,95477.22
2018-04-09T01:39:35.415Z,95478.20
2018-04-09T01:42:04.655Z,95478.37
2018-04-09T01:44:30.516Z,95469.48
2018-04-09T01:46:59.706Z,95479.98
2018-04-09T01:49:25.589Z,95474.77
2018-04-09T01:51:54.891Z,95464.96
2018-04-09T01:54:20.795Z,95458.67
2018-04-09T01:56:46.695Z,95456.05
2018-04-09T01:59:12.585Z,95456.97
2018-04-09T02:01:38.473Z,95453.59
2018-04-09T02:04:05.871Z,95448.86
2018-04-09T02:06:31.771Z,95450.19
2018-04-09T02:09:01.065Z,95451.70
2018-04-09T02:11:26.991Z,95444.22
2018-04-09T02:13:56.414Z,95436.77
2018-04-09T02:16:22.307Z,95433.38
2018-04-09T02:18:49.868Z,95438.89
2018-04-09T02:21:15.731Z,95429.25
2018-04-09T02:23:43.884Z,95426.72
2018-04-09T02:26:12.032Z,95438.55
2018-04-09T02:28:38.500Z,95436.88
2018-04-09T02:31:04.495Z,95435.66
2018-04-09T02:33:30.356Z,95446.85
2018-04-09T02:35:56.230Z,95442.50
2018-04-09T02:38:22.099Z,95440.77
2018-04-09T02:40:51.011Z,95432.49
2018-04-09T02:43:16.874Z,95437.91
2018-04-09T02:45:46.223Z,95432.45
2018-04-09T02:48:12.097Z,95427.66
2018-04-09T02:50:40.188Z,95435.23
2018-04-09T02:53:06.100Z,95432.19
2018-04-09T02:55:35.703Z,95426.59
2018-04-09T02:58:01.605Z,95420.42
2018-04-09T03:00:29.403Z,95429.28
2018-04-09T03:02:55.277Z,95425.07
2018-04-09T03:05:24.569Z,95427.19
2018-04-09T03:07:50.429Z,95414.92
2018-04-09T03:10:16.308Z,95418.09
2018-04-09T03:12:42.211Z,95418.86
2018-04-09T03:15:08.085Z,95419.34
2018-04-09T03:17:37.328Z,95425.39
2018-04-09T03:20:03.198Z,95431.15
2018-04-09T03:22:30.704Z,95423.28
2018-04-09T03:24:56.551Z,95432.41
2018-04-09T03:27:25.938Z,95446.84
2018-04-09T03:29:51.823Z,95442.45
2018-04-09T03:32:21.559Z,95440.49
2018-04-09T03:34:47.403Z,95438.53
2018-04-09T03:37:15.062Z,95434.66
2018-04-09T03:39:40.971Z,95420.69
2018-04-09T03:42:10.491Z,95417.08
2018-04-09T03:44:36.481Z,95420.75
2018-04-09T03:47:02.382Z,95413.73
2018-04-09T03:49:28.267Z,95413.91
2018-04-09T03:51:54.116Z,95412.20
2018-04-09T03:54:21.748Z,95414.08
2018-04-09T03:56:47.655Z,95417.08
2018-04-09T03:59:16.123Z,95418.42
2018-04-09T04:01:41.991Z,95418.77
2018-04-09T04:04:10.623Z,95416.66
2018-04-09T04:06:36.551Z,95413.72
2018-04-09T04:09:05.625Z,95412.82
2018-04-09T04:11:31.508Z,95405.08
2018-04-09T04:14:00.046Z,95409.95
2018-04-09T04:19:39.566Z,95398.26
2018-04-09T04:22:05.443Z,95399.02
2018-04-09T04:24:31.360Z,95404.30
2018-04-09T04:26:57.248Z,95394.50
2018-04-09T04:29:23.102Z,95412.36
2018-04-09T04:31:48.967Z,95405.56
2018-04-09T04:34:14.842Z,95408.62
2018-04-09T04:36:40.702Z,95413.53
2018-04-09T04:39:06.653Z,95415.60
2018-04-09T04:41:32.518Z,95410.63
2018-04-09T04:43:58.459Z,95401.74
2018-04-09T04:46:24.338Z,95413.03
2018-04-09T04:48:50.214Z,95416.66
2018-04-09T04:51:16.095Z,95414.45
2018-04-09T04:53:41.953Z,95412.53
2018-04-09T04:56:07.833Z,95415.38
2018-04-09T04:58:33.695Z,95423.75
2018-04-09T05:00:59.553Z,95430.91
2018-04-09T05:03:25.454Z,95437.28
2018-04-09T05:05:51.305Z,95427.94
2018-04-09T05:08:17.186Z,95433.56
2018-04-09T05:10:43.027Z,95433.29
2018-04-09T05:13:08.851Z,95438.00
2018-04-09T05:15:34.726Z,95438.73
2018-04-09T05:18:00.572Z,95436.39
2018-04-09T05:20:26.455Z,95434.17
2018-04-09T05:22:52.304Z,95437.13
2018-04-09T05:25:18.193Z,95439.80
2018-04-09T05:27:44.052Z,95438.57
2018-04-09T05:30:09.925Z,95441.44
2018-04-09T05:32:35.826Z,95441.25
2018-04-09T05:35:01.674Z,95448.28
2018-04-09T05:37:27.542Z,95441.47
2018-04-09T05:39:53.447Z,95447.67
2018-04-09T05:42:19.321Z,95444.67
2018-04-09T05:44:45.211Z,95439.81
2018-04-09T05:47:11.155Z,95452.19
2018-04-09T05:49:37.013Z,95444.57
2018-04-09T05:52:02.927Z,95453.67
2018-04-09T05:54:28.786Z,95451.54
2018-04-09T05:56:54.668Z,95456.84
2018-04-09T05:59:21.855Z,95450.08
2018-04-09T06:01:47.735Z,95450.67
2018-04-09T06:04:17.132Z,95442.83
2018-04-09T06:06:43.030Z,95448.16
2018-04-09T06:09:10.761Z,95440.42
2018-04-09T06:11:36.648Z,95443.05
2018-04-09T06:14:02.558Z,95437.64
2018-04-09T06:16:28.457Z,95438.73
2018-04-09T06:18:54.368Z,95428.33
2018-04-09T06:21:22.087Z,95433.59
2018-04-09T06:23:47.961Z,95435.23
2018-04-09T06:26:17.554Z,95424.91
2018-04-09T06:28:43.409Z,95424.48
2018-04-09T06:31:11.900Z,95430.63
2018-04-09T06:33:37.763Z,95424.99
2018-04-09T06:36:06.904Z,95419.22
2018-04-09T06:38:32.820Z,95415.86
2018-04-09T06:41:01.378Z,95412.76
2018-04-09T06:43:27.292Z,95412.89
2018-04-09T06:45:56.830Z,95417.95
2018-04-09T06:48:22.762Z,95413.61
2018-04-09T06:50:48.694Z,95402.64
2018-04-09T06:53:14.565Z,95411.89
2018-04-09T06:55:40.513Z,95420.08
2018-04-09T06:58:08.033Z,95424.06
2018-04-09T07:00:33.927Z,95419.40
2018-04-09T07:03:03.355Z,95413.61
2018-04-09T07:05:29.279Z,95424.83
2018-04-09T07:07:56.867Z,95423.06
2018-04-09T07:10:22.717Z,95421.00
2018-04-09T07:12:51.488Z,95413.30
2018-04-09T07:15:17.387Z,95418.20
2018-04-09T07:17:46.089Z,95412.39
2018-04-09T07:20:11.967Z,95408.97
2018-04-09T07:22:40.655Z,95412.52
2018-04-09T07:25:06.502Z,95405.09
2018-04-09T07:27:32.427Z,95405.64
2018-04-09T07:29:58.298Z,95400.67
2018-04-09T07:32:24.194Z,95406.75
2018-04-09T07:34:53.389Z,95405.99
2018-04-09T07:37:19.287Z,95406.23
2018-04-09T07:39:48.464Z,95412.69
2018-04-09T07:42:14.343Z,95414.84
2018-04-09T07:44:42.393Z,95405.48
2018-04-09T07:47:08.243Z,95398.97
2018-04-09T07:49:37.242Z,95403.27
2018-04-09T07:52:03.123Z,95400.38
2018-04-09T07:54:32.343Z,95402.77
2018-04-09T07:56:58.228Z,95402.06
2018-04-09T07:59:27.374Z,95399.36
2018-04-09T08:01:53.283Z,95399.16
2018-04-09T08:04:19.167Z,95396.14
2018-04-09T08:06:45.031Z,95394.77
2018-04-09T08:09:10.939Z,95392.77
2018-04-09T08:11:38.340Z,95401.48
2018-04-09T08:14:04.222Z,95394.82
2018-04-09T08:16:33.124Z,95396.88
2018-04-09T08:18:58.983Z,95397.69
2018-04-09T08:21:27.348Z,95405.95
2018-04-09T08:23:53.223Z,95401.88
2018-04-09T08:26:21.976Z,95402.30
2018-04-09T08:28:47.850Z,95400.25
2018-04-09T08:31:16.610Z,95404.95
2018-04-09T08:33:42.454Z,95401.99
2018-04-09T08:36:11.730Z,95400.48
2018-04-09T08:38:37.590Z,95392.94
2018-04-09T08:41:03.475Z,95399.67
2018-04-09T08:43:29.353Z,95402.72
2018-04-09T08:45:55.235Z,95400.34
2018-04-09T08:48:23.424Z,95397.84
2018-04-09T08:50:49.345Z,95391.19
2018-04-09T08:53:18.783Z,95396.18
2018-04-09T08:55:44.623Z,95393.17
2018-04-09T08:58:13.921Z,95385.86
2018-04-09T09:00:39.798Z,95382.48
2018-04-09T09:03:09.228Z,95386.88
2018-04-09T09:05:35.115Z,95383.72
2018-04-09T09:08:02.566Z,95393.48
2018-04-09T09:10:28.418Z,95388.73
2018-04-09T09:12:58.020Z,95387.12
2018-04-09T09:15:23.921Z,95382.12
2018-04-09T09:17:49.764Z,95384.56
2018-04-09T09:20:15.625Z,95388.03
2018-04-09T09:22:41.512Z,95380.18
2018-04-09T09:25:08.642Z,95383.63
2018-04-09T09:27:34.538Z,95380.94
2018-04-09T09:30:03.252Z,95371.62
2018-04-09T09:32:29.115Z,95370.02
2018-04-09T09:34:57.935Z,95380.38
2018-04-09T09:37:23.839Z,95376.31
2018-04-09T09:39:52.702Z,95380.06
2018-04-09T09:42:18.592Z,95382.22
2018-04-09T09:44:47.436Z,95385.58
2018-04-09T09:47:13.314Z,95378.27
2018-04-09T09:49:42.528Z,95373.19
2018-04-09T09:52:08.403Z,95362.89
2018-04-09T09:54:34.278Z,95367.03
2018-04-09T09:57:00.174Z,95364.06
2018-04-09T09:59:26.038Z,95356.94
2018-04-09T10:01:53.922Z,95350.24
2018-04-09T10:04:19.806Z,95354.95
2018-04-09T10:06:48.562Z,95354.66
2018-04-09T10:09:14.434Z,95349.53
2018-04-09T10:11:43.212Z,95354.95
2018-04-09T10:14:09.164Z,95356.62
2018-04-09T10:16:38.549Z,95344.42
2018-04-09T10:19:04.442Z,95358.19
2018-04-09T10:21:33.890Z,95358.79
2018-04-09T10:23:59.782Z,95340.89
2018-04-09T10:26:27.423Z,95350.22
2018-04-09T10:28:53.288Z,95347.08
2018-04-09T10:31:19.147Z,95349.08
2018-04-09T10:33:44.970Z,95345.87
2018-04-09T10:36:10.893Z,95347.96
2018-04-09T10:38:40.156Z,95345.69
2018-04-09T10:41:06.029Z,95346.71
2018-04-09T10:43:33.821Z,95349.88
2018-04-09T10:45:59.718Z,95344.48
2018-04-09T10:48:28.389Z,95350.89
2018-04-09T10:50:54.284Z,95356.87
2018-04-09T10:53:20.146Z,95360.13
2018-04-09T10:55:46.007Z,95367.95
2018-04-09T10:58:11.884Z,95365.30
2018-04-09T11:00:37.760Z,95361.06
2018-04-09T11:03:03.629Z,95354.97
2018-04-09T11:05:29.491Z,95359.93
2018-04-09T11:07:55.352Z,95356.45
2018-04-09T11:10:21.202Z,95358.91
2018-04-09T11:12:47.071Z,95362.58
2018-04-09T11:15:12.950Z,95361.04
2018-04-09T11:17:38.814Z,95353.44
2018-04-09T11:20:04.662Z,95351.39
2018-04-09T11:22:30.530Z,95347.44
2018-04-09T11:24:56.382Z,95355.08
2018-04-09T11:27:22.255Z,95354.58
2018-04-09T11:29:48.104Z,95348.89
2018-04-09T11:32:13.985Z,95351.58
2018-04-09T11:34:39.871Z,95349.29
2018-04-09T11:37:05.782Z,95343.79
2018-04-09T11:39:31.690Z,95340.39
2018-04-09T11:41:57.539Z,95341.58
2018-04-09T11:44:23.364Z,95336.16
2018-04-09T11:46:49.252Z,95336.30
2018-04-09T11:49:15.148Z,95334.52
2018-04-09T11:51:41.009Z,95333.60
2018-04-09T11:54:06.945Z,95335.46
2018-04-09T11:56:32.839Z,95339.27
2018-04-09T11:58:58.726Z,95348.00
2018-04-09T12:01:24.626Z,95350.52
2018-04-09T12:03:50.472Z,95344.70
2018-04-09T12:06:16.358Z,95340.77
2018-04-09T12:08:42.239Z,95341.69
2018-04-09T12:11:08.110Z,95337.82
2018-04-09T12:13:33.944Z,95329.02
2018-04-09T12:15:59.784Z,95331.43
2018-04-09T12:18:25.669Z,95327.48
2018-04-09T12:20:51.569Z,95325.97
2018-04-09T12:23:17.468Z,95324.96
2018-04-09T12:25:43.334Z,95326.27
2018-04-09T12:28:09.173Z,95320.05
2018-04-09T12:30:35.066Z,95324.07
2018-04-09T12:33:00.939Z,95330.36
2018-04-09T12:35:26.821Z,95320.80
2018-04-09T12:37:52.697Z,95317.39
2018-04-09T12:40:18.613Z,95318.37
2018-04-09T12:42:44.505Z,95312.44
2018-04-09T12:45:10.369Z,95309.80
2018-04-09T12:47:36.228Z,95312.16
2018-04-09T12:50:02.124Z,95314.58
2018-04-09T12:52:27.982Z,95309.39
2018-04-09T12:54:53.825Z,95307.72
2018-04-09T12:57:19.720Z,95312.80
2018-04-09T12:59:45.634Z,95308.06
2018-04-09T13:02:11.483Z,95304.44
2018-04-09T13:04:39.355Z,95308.28
2018-04-09T13:07:05.228Z,95305.70
2018-04-09T13:09:33.909Z,95306.31
2018-04-09T13:11:59.807Z,95308.22
2018-04-09T13:14:28.550Z,95304.58
2018-04-09T13:16:54.409Z,95296.16
2018-04-09T13:19:20.297Z,95300.36
2018-04-09T13:21:46.184Z,95292.20
2018-04-09T13:24:12.034Z,95291.47
2018-04-09T13:26:41.066Z,95290.43
2018-04-09T13:29:06.932Z,95282.20
2018-04-09T13:31:36.289Z,95288.31
2018-04-09T13:34:02.133Z,95283.67
2018-04-09T13:36:31.607Z,95279.47
2018-04-09T13:38:57.477Z,95279.08
2018-04-09T13:41:25.212Z,95268.69
2018-04-09T13:43:51.341Z,95271.98
2018-04-09T13:46:20.201Z,95259.09
2018-04-09T13:48:46.066Z,95262.03
2018-04-09T13:51:14.972Z,95255.36
2018-04-09T13:53:40.857Z,95256.05
2018-04-09T13:56:06.761Z,95255.72
2018-04-09T13:58:32.621Z,95252.83
2018-04-09T14:00:58.489Z,95248.48
2018-04-09T14:03:27.637Z,95246.36
2018-04-09T14:05:53.487Z,95249.02
2018-04-09T14:08:20.457Z,95247.61
2018-04-09T14:10:46.301Z,95246.19
2018-04-09T14:13:15.360Z,95242.88
2018-04-09T14:15:41.216Z,95233.65
2018-04-09T14:18:10.445Z,95235.11
2018-04-09T14:20:36.324Z,95231.23
2018-04-09T14:23:05.536Z,95227.05
2018-04-09T14:25:31.397Z,95221.20
2018-04-09T14:28:00.310Z,95223.88
2018-04-09T14:30:26.165Z,95221.86
2018-04-09T14:32:52.057Z,95228.16
2018-04-09T14:35:17.976Z,95219.05
2018-04-09T14:37:43.846Z,95215.64
2018-04-09T14:40:12.753Z,95210.35
2018-04-09T14:42:38.649Z,95216.39
2018-04-09T14:45:05.845Z,95211.97
2018-04-09T14:47:31.748Z,95206.47
2018-04-09T14:50:00.446Z,95212.95
2018-04-09T14:52:26.332Z,95214.89
2018-04-09T14:54:59.053Z,95212.67
2018-04-09T14:57:24.969Z,95204.38
2018-04-09T14:59:50.853Z,95206.84
2018-04-09T15:02:16.734Z,95209.82
2018-04-09T15:04:46.419Z,95205.19
2018-04-09T15:07:12.310Z,95207.75
2018-04-09T15:09:38.219Z,95200.13
2018-04-09T15:12:04.126Z,95202.80
2018-04-09T15:14:30.026Z,95202.22
2018-04-09T15:16:57.109Z,95204.55
2018-04-09T15:19:22.980Z,95207.52
2018-04-09T15:21:52.213Z,95212.67
2018-04-09T15:24:18.060Z,95202.70
2018-04-09T15:26:47.287Z,95201.63
2018-04-09T15:29:13.161Z,95211.64
2018-04-09T15:31:42.415Z,95207.69
2018-04-09T15:34:08.261Z,95212.88
2018-04-09T15:36:35.272Z,95212.72
2018-04-09T15:39:01.146Z,95219.67
2018-04-09T15:41:30.370Z,95216.98
2018-04-09T15:43:56.244Z,95219.77
2018-04-09T15:46:22.124Z,95222.16
2018-04-09T15:48:47.998Z,95220.64
2018-04-09T15:51:13.852Z,95219.27
2018-04-09T15:53:42.046Z,95217.30
2018-04-09T15:56:07.938Z,95211.02
2018-04-09T15:58:37.286Z,95213.16
2018-04-09T16:01:03.218Z,95210.48
2018-04-09T16:03:31.640Z,95206.86
2018-04-09T16:05:57.476Z,95205.73
2018-04-09T16:08:26.389Z,95202.87
2018-04-09T16:10:52.253Z,95205.67
2018-04-09T16:13:21.389Z,95204.70
2018-04-09T16:15:47.287Z,95204.67
2018-04-09T16:18:16.796Z,95215.63
2018-04-09T16:20:42.719Z,95218.50
2018-04-09T16:23:08.569Z,95219.02
2018-04-09T16:25:34.432Z,95216.97
2018-04-09T16:28:00.323Z,95213.63
2018-04-09T16:30:27.309Z,95219.06
2018-04-09T16:32:53.149Z,95216.98
2018-04-09T16:35:22.126Z,95215.55
2018-04-09T16:37:47.985Z,95216.67
2018-04-09T16:40:17.548Z,95215.83
2018-04-09T16:42:43.406Z,95217.02
2018-04-09T16:45:12.656Z,95222.55
2018-04-09T16:47:38.532Z,95221.78
2018-04-09T16:50:05.958Z,95220.26
2018-04-09T16:52:31.817Z,95224.48
2018-04-09T16:55:01.543Z,95232.19
2018-04-09T16:57:27.417Z,95233.69
2018-04-09T16:59:53.282Z,95237.33
2018-04-09T17:02:19.163Z,95236.78
2018-04-09T17:04:45.073Z,95238.22
2018-04-09T17:07:12.397Z,95232.08
2018-04-09T17:09:38.265Z,95234.58
2018-04-09T17:12:07.983Z,95232.05
2018-04-09T17:14:33.884Z,95227.47
2018-04-09T17:17:01.614Z,95230.45
2018-04-09T17:19:27.495Z,95229.97
2018-04-09T17:21:56.271Z,95233.95
2018-04-09T17:24:22.121Z,95232.48
2018-04-09T17:26:50.941Z,95227.91
2018-04-09T17:29:16.838Z,95238.13
2018-04-09T17:31:45.464Z,95236.19
2018-04-09T17:34:11.341Z,95233.91
2018-04-09T17:36:37.221Z,95233.60
2018-04-09T17:39:03.217Z,95238.83
2018-04-09T17:41:29.072Z,95239.78
2018-04-09T17:43:58.118Z,95247.81
2018-04-09T17:46:24.025Z,95248.55
2018-04-09T17:48:53.940Z,95244.13
2018-04-09T17:51:19.840Z,95249.31
2018-04-09T17:53:47.549Z,95246.63
2018-04-09T17:56:13.468Z,95232.80
2018-04-09T17:58:43.295Z,95246.73
2018-04-09T18:01:09.185Z,95253.43
2018-04-09T18:03:36.537Z,95253.29
2018-04-09T18:06:02.425Z,95257.48
2018-04-09T18:08:31.318Z,95262.25
2018-04-09T18:10:57.182Z,95263.19
2018-04-09T18:13:23.081Z,95270.96
2018-04-09T18:15:48.937Z,95271.52
2018-04-09T18:18:14.804Z,95262.45
2018-04-09T18:20:43.772Z,95277.91
2018-04-09T18:23:09.633Z,95278.36
2018-04-09T18:25:37.514Z,95277.84
2018-04-09T18:28:03.397Z,95286.40
2018-04-09T18:30:32.241Z,95284.39
2018-04-09T18:32:58.103Z,95278.78
2018-04-09T18:35:26.879Z,95283.13
2018-04-09T18:37:52.788Z,95282.33
2018-04-09T18:40:21.579Z,95281.14
2018-04-09T18:42:47.521Z,95287.24
2018-04-09T18:45:16.165Z,95291.95
2018-04-09T18:47:42.037Z,95293.45
2018-04-09T18:50:07.943Z,95299.45
2018-04-09T18:52:33.830Z,95303.08
2018-04-09T18:54:59.702Z,95299.45
2018-04-09T18:57:28.745Z,95308.27
2018-04-09T18:59:54.636Z,95313.52
2018-04-09T19:02:23.197Z,95315.72
2018-04-09T19:04:49.089Z,95316.94
2018-04-09T19:07:18.387Z,95316.30
2018-04-09T19:09:44.285Z,95325.55
2018-04-09T19:12:13.910Z,95323.56
2018-04-09T19:14:39.796Z,95329.09
2018-04-09T19:17:07.346Z,95323.91
2018-04-09T19:19:33.276Z,95327.77
2018-04-09T19:22:01.978Z,95324.59
2018-04-09T19:24:27.841Z,95326.06
2018-04-09T19:26:53.722Z,95328.89
2018-04-09T19:29:19.617Z,95337.05
2018-04-09T19:31:45.509Z,95342.15
2018-04-09T19:34:15.050Z,95338.13
2018-04-09T19:36:47.154Z,95337.00
2018-04-09T19:39:19.046Z,95340.00
2018-04-09T19:41:44.891Z,95338.10
2018-04-09T19:44:10.797Z,95339.73
2018-04-09T19:46:36.630Z,95343.89
2018-04-09T19:49:02.505Z,95340.41
2018-04-09T19:51:28.377Z,95334.02
2018-04-09T19:53:54.262Z,95330.45
2018-04-09T19:56:20.136Z,95322.09
2018-04-09T19:58:47.744Z,95330.61
2018-04-09T20:01:13.679Z,95331.77
2018-04-09T20:03:39.570Z,95330.30
2018-04-09T20:06:05.413Z,95331.13
2018-04-09T20:08:31.314Z,95327.77
2018-04-09T20:10:58.942Z,95329.32
2018-04-09T20:13:24.806Z,95322.77
2018-04-09T20:15:54.670Z,95325.05
2018-04-09T20:18:20.527Z,95324.31
2018-04-09T20:20:49.990Z,95325.37
2018-04-09T20:23:15.873Z,95323.32
2018-04-09T20:25:43.481Z,95320.69
2018-04-09T20:28:09.355Z,95323.13
2018-04-09T20:30:38.730Z,95320.92
2018-04-09T20:33:04.589Z,95321.25
2018-04-09T20:35:34.109Z,95322.73
2018-04-09T20:38:00.025Z,95324.30
2018-04-09T20:40:25.917Z,95312.14
2018-04-09T20:42:51.834Z,95330.77
2018-04-09T20:45:17.680Z,95323.22
2018-04-09T20:47:44.491Z,95322.16
2018-04-09T20:50:10.401Z,95325.01
2018-04-09T20:52:40.907Z,95326.36
2018-04-09T20:55:06.911Z,95328.30
2018-04-09T20:57:33.225Z,95330.84
2018-04-09T20:59:59.115Z,95326.93
2018-04-09T21:02:27.993Z,95329.92
2018-04-09T21:04:53.855Z,95325.95
2018-04-09T21:07:22.570Z,95321.36
2018-04-09T21:09:48.470Z,95320.20
2018-04-09T21:12:18.121Z,95316.53
2018-04-09T21:14:45.417Z,95330.06
2018-04-09T21:17:11.266Z,95325.66
2018-04-09T21:19:37.123Z,95319.42
2018-04-09T21:22:03.038Z,95314.56
2018-04-09T21:24:29.717Z,95323.03
2018-04-09T21:26:55.605Z,95318.91
2018-04-09T21:29:24.834Z,95313.91
2018-04-09T21:31:50.696Z,95318.11
2018-04-09T21:34:19.620Z,95315.78
2018-04-09T21:36:45.514Z,95317.00
2018-04-09T21:39:13.784Z,95310.79
2018-04-09T21:41:39.711Z,95304.08
2018-04-09T21:44:08.846Z,95310.73
2018-04-09T21:46:34.701Z,95301.41
2018-04-09T21:49:02.927Z,95303.72
2018-04-09T21:51:28.808Z,95304.70
2018-04-09T21:53:54.695Z,95304.17
2018-04-09T21:56:20.577Z,95300.69
2018-04-09T21:58:46.441Z,95302.66
2018-04-09T22:01:16.354Z,95310.12
2018-04-09T22:03:42.227Z,95303.94
2018-04-09T22:06:09.930Z,95301.22
2018-04-09T22:08:35.772Z,95306.19
2018-04-09T22:11:05.140Z,95307.22
2018-04-09T22:13:31.013Z,95308.43
2018-04-09T22:15:58.704Z,95305.72
2018-04-09T22:18:24.561Z,95309.97
2018-04-09T22:20:53.804Z,95313.25
2018-04-09T22:23:19.702Z,95312.45
2018-04-09T22:25:49.178Z,95316.64
2018-04-09T22:28:15.063Z,95309.30
2018-04-09T22:30:40.949Z,95309.44
2018-04-09T22:33:06.813Z,95311.13
2018-04-09T22:35:32.680Z,95310.48
2018-04-09T22:38:00.150Z,95310.25
2018-04-09T22:40:26.058Z,95312.52
2018-04-09T22:42:54.415Z,95319.05
2018-04-09T22:45:20.240Z,95321.14
2018-04-09T22:47:49.480Z,95325.45
2018-04-09T22:50:15.398Z,95326.48
2018-04-09T22:52:44.409Z,95318.63
2018-04-09T22:55:10.339Z,95317.33
2018-04-09T22:57:40.874Z,95308.56
2018-04-09T23:00:06.809Z,95310.53
2018-04-09T23:02:33.354Z,95308.00
2018-04-09T23:04:59.244Z,95308.42
2018-04-09T23:07:25.092Z,95316.03
2018-04-09T23:09:50.998Z,95319.91
2018-04-09T23:12:16.852Z,95318.84
2018-04-09T23:14:46.184Z,95324.09
2018-04-09T23:17:12.065Z,95323.39
2018-04-09T23:19:39.862Z,95325.20
2018-04-09T23:22:05.788Z,95323.47
2018-04-09T23:24:34.510Z,95314.38
2018-04-09T23:27:00.368Z,95328.56
2018-04-09T23:29:29.304Z,95332.44
2018-04-09T23:31:55.165Z,95326.83
2018-04-09T23:34:24.058Z,95319.16
2018-04-09T23:36:49.914Z,95327.16
2018-04-09T23:39:19.363Z,95331.08
2018-04-09T23:41:45.236Z,95320.31
2018-04-09T23:44:11.111Z,95321.62
2018-04-09T23:46:36.973Z,95318.94
2018-04-09T23:49:02.805Z,95311.08
2018-04-09T23:51:31.681Z,95316.01
2018-04-09T23:53:57.578Z,95312.20
2018-04-09T23:56:26.835Z,95312.26
2018-04-09T23:58:52.728Z,95305.67
